РПИ Актобе

РПИ Актобе является структурным подразделением дивизиона VATRUS сети VATSIM.

РПИ осуществляет свою деятельность в границах Актюбинской, Атырауской, Мангистауской и Западно-Казахстанской областей Республики Казахстан.

Схемы и аэронавигационную информацию можно получить на сайте   Казаэронавигация

Средства связи ОВД:

UATT_CTR - Актобе Контроль - 129.600

RU-CEN_FSS - Азия Радар  - 132.850 (РПИ: UACN, UAAA, UAII, UATT, UTAA, UCFM, UTAT, UTDD, UTTR,  UCFO,  UTSD, UTAV,  UTAK)

Руководитель РПИ

Dmitriy Bannov

Инструкторы РПИ
Evgeny Vygornitsky (Supervisor)
Vitaliy Alekseyev (Instructor)
Входит в состав
ЗЦ Центральная Азия

Диспетчеры РПИ

Диспетчер Рейтинг Допуски *

Аэропорты РПИ

ICAO Город Название Погода
UATT Актобе Актобе UATT 020230Z 05002MPS CAVOK 18/06 Q1010 NOSIG RMK QFE738/0984
UATG Атырау Атырау UATG 020230Z 11003MPS 9999 SCT030CB 21/16 Q1007 NOSIG RMK QFE757/1010
UARR Уральск Уральск UARR 020230Z 05005MPS 9999 SCT050CB 16/12 Q1007 NOSIG RMK QFE752/1003